Time;durP1;ratioP1;P1;durP2;ratioP2;P2;SDS_P1;SDS_P2;PMS_P1;PMS_P2;Temp;Humidity;BMP_temperature;BMP_pressure;BME280_temperature;BME280_humidity;BME280_pressure;Samples;Min_cycle;Max_cycle;Signal;HPM_P1;HPM_P2
2021/05/17 00:01:17;;;;;;;8.95;5.50;;;;;;;9.86;66.79;99026.85;2080417;85;29026;-65
2021/05/17 00:04:41;;;;;;;10.75;5.33;;;;;;;9.82;66.84;99014.67;2077276;85;31594;-69
2021/05/17 00:07:28;;;;;;;10.68;5.95;;;;;;;9.78;66.95;99011.81;2042691;85;33139;-71
2021/05/17 00:10:33;;;;;;;8.95;5.15;;;;;;;9.76;67.03;99024.43;2075491;85;29946;-59
2021/05/17 00:13:35;;;;;;;11.25;5.03;;;;;;;9.72;67.14;99020.62;2079439;85;28058;-59
2021/05/17 00:16:38;;;;;;;9.63;5.00;;;;;;;9.67;67.25;99017.42;2080191;85;29735;-60
2021/05/17 00:19:40;;;;;;;13.18;6.30;;;;;;;9.65;67.38;99014.45;2080271;85;31163;-59
2021/05/17 00:22:43;;;;;;;8.53;5.17;;;;;;;9.63;67.55;99014.56;2080161;85;34324;-61
2021/05/17 00:25:47;;;;;;;13.08;6.03;;;;;;;9.61;67.64;99010.25;2080246;85;30069;-70
2021/05/17 00:28:49;;;;;;;14.63;5.85;;;;;;;9.59;67.88;99010.37;2080446;85;27938;-59
2021/05/17 00:31:51;;;;;;;12.93;6.33;;;;;;;9.60;68.04;99009.91;2080313;85;29410;-67
2021/05/17 00:34:55;;;;;;;10.58;5.15;;;;;;;9.61;68.24;99005.78;2097570;83;32263;-68
2021/05/17 00:37:58;;;;;;;12.13;5.75;;;;;;;9.65;68.45;99006.42;2140672;83;34013;-65
2021/05/17 00:41:00;;;;;;;9.35;5.42;;;;;;;9.69;68.68;99002.09;2120092;83;29768;-60
2021/05/17 00:44:04;;;;;;;10.50;4.75;;;;;;;9.75;68.77;98995.97;2120052;83;27635;-60
2021/05/17 00:47:10;;;;;;;9.33;4.65;;;;;;;9.84;68.98;99000.72;2084691;85;28058;-62
2021/05/17 00:50:18;;;;;;;9.73;4.78;;;;;;;9.92;68.99;98994.84;2084904;85;30790;-60
2021/05/17 00:53:20;;;;;;;13.22;5.08;;;;;;;10.00;68.85;98988.47;2081024;85;32868;-60
2021/05/17 00:56:23;;;;;;;10.13;4.53;;;;;;;10.09;68.70;98986.52;2111681;83;29016;-64
2021/05/17 00:59:26;;;;;;;9.48;5.28;;;;;;;10.15;68.72;98985.23;2119500;84;27610;-60
2021/05/17 01:02:28;;;;;;;8.68;4.75;;;;;;;10.19;68.74;98990.72;2119373;84;29387;-60
2021/05/17 01:05:30;;;;;;;10.15;5.33;;;;;;;10.20;68.70;99005.83;2119478;84;31610;-60
2021/05/17 01:08:54;;;;;;;9.38;5.35;;;;;;;10.19;68.58;99008.13;2119419;84;33330;-61
2021/05/17 01:12:00;;;;;;;9.03;4.85;;;;;;;10.17;68.65;99010.08;2119449;84;30202;-60
2021/05/17 01:15:02;;;;;;;16.42;5.62;;;;;;;10.14;68.69;99004.92;2119481;84;27665;-68
2021/05/17 01:18:05;;;;;;;11.38;5.25;;;;;;;10.13;68.80;99005.39;2119527;84;28838;-61
2021/05/17 01:21:08;;;;;;;9.68;5.22;;;;;;;10.10;68.86;99010.95;2119267;84;31935;-61
2021/05/17 01:24:11;;;;;;;9.70;5.70;;;;;;;10.11;68.98;99015.34;2119356;84;34312;-60
2021/05/17 01:27:13;;;;;;;12.00;5.87;;;;;;;10.12;69.12;99013.54;2119379;84;29947;-66
2021/05/17 01:30:18;;;;;;;7.05;4.45;;;;;;;10.13;69.20;99016.09;2119279;84;27780;-66
2021/05/17 01:33:20;;;;;;;10.98;4.65;;;;;;;10.15;69.28;99007.48;2119124;84;29609;-63
2021/05/17 01:36:24;;;;;;;10.75;4.60;;;;;;;10.18;69.36;99013.09;2119273;84;32179;-62
2021/05/17 01:39:26;;;;;;;8.05;4.78;;;;;;;10.22;69.38;99009.75;2119174;84;33194;-64
2021/05/17 01:42:28;;;;;;;8.13;3.60;;;;;;;10.27;69.34;99005.78;2119413;84;29051;-66
2021/05/17 01:45:31;;;;;;;9.00;4.10;;;;;;;10.31;69.59;99004.62;2119608;84;27638;-60
2021/05/17 01:48:36;;;;;;;7.05;4.12;;;;;;;10.36;69.37;99004.29;2119469;84;28533;-69
2021/05/17 01:51:39;;;;;;;8.30;4.33;;;;;;;10.37;69.29;98999.31;2119273;84;31752;-64
2021/05/17 01:54:43;;;;;;;7.83;4.17;;;;;;;10.37;69.20;99004.67;2119484;84;33338;-66
2021/05/17 01:57:46;;;;;;;13.73;5.30;;;;;;;10.36;69.37;99010.98;2119476;82;29059;-64
2021/05/17 02:00:48;;;;;;;9.58;4.53;;;;;;;10.31;69.19;99011.77;2119383;84;27658;-67
2021/05/17 02:03:51;;;;;;;10.40;4.50;;;;;;;10.31;69.23;99012.65;2119351;84;29726;-61
2021/05/17 02:06:54;;;;;;;11.10;4.33;;;;;;;10.30;69.18;99012.27;2119437;84;31389;-62
2021/05/17 02:10:00;;;;;;;11.00;4.03;;;;;;;10.31;69.19;99012.65;2119212;84;34020;-61
2021/05/17 02:13:03;;;;;;;14.30;3.87;;;;;;;10.34;69.23;99009.73;2118680;84;29761;-69
2021/05/17 02:16:08;;;;;;;9.43;3.50;;;;;;;10.37;69.31;99001.12;2119064;84;27670;-68
2021/05/17 02:19:11;;;;;;;6.72;3.67;;;;;;;10.40;69.36;99000.48;2118707;84;30413;-62
2021/05/17 02:22:22;;;;;;;8.33;3.37;;;;;;;10.43;69.24;98998.89;2119358;84;32325;-65
2021/05/17 02:25:25;;;;;;;9.15;3.87;;;;;;;10.45;69.25;99002.83;2119538;84;33544;-65
2021/05/17 02:28:27;;;;;;;7.12;3.05;;;;;;;10.44;69.17;99001.95;2119306;84;29739;-62
2021/05/17 02:31:30;;;;;;;8.18;3.02;;;;;;;10.44;69.23;99012.66;2119336;84;27619;-62
2021/05/17 02:34:33;;;;;;;10.55;3.40;;;;;;;10.42;69.40;99019.97;2119312;84;29342;-68
2021/05/17 02:37:36;;;;;;;5.58;2.80;;;;;;;10.42;69.37;99021.77;2119318;84;31685;-66
2021/05/17 02:40:40;;;;;;;8.65;3.40;;;;;;;10.43;69.42;99024.83;2119261;84;34045;-68
2021/05/17 02:43:42;;;;;;;3.50;2.27;;;;;;;10.44;69.42;99022.53;2119472;84;29015;-69
2021/05/17 02:46:45;;;;;;;6.50;3.08;;;;;;;10.46;69.64;99023.28;2119224;84;28221;-68
2021/05/17 02:49:48;;;;;;;5.53;2.77;;;;;;;10.44;69.54;99022.03;2118926;84;29817;-66
2021/05/17 02:52:51;;;;;;;3.83;2.72;;;;;;;10.44;69.60;99030.56;2119091;84;31383;-62
2021/05/17 02:55:58;;;;;;;5.45;2.50;;;;;;;10.43;69.49;99035.04;2119064;84;33704;-62
2021/05/17 02:59:05;;;;;;;5.58;2.12;;;;;;;10.43;69.53;99037.72;2118889;84;29113;-59
2021/05/17 03:02:08;;;;;;;5.78;2.80;;;;;;;10.43;69.55;99040.39;2092798;84;27695;-68
2021/05/17 03:05:12;;;;;;;7.47;3.67;;;;;;;10.42;69.59;99044.06;2119436;84;28684;-66
2021/05/17 03:08:16;;;;;;;7.20;2.98;;;;;;;10.40;69.46;99048.66;2119436;84;30990;-61
2021/05/17 03:11:21;;;;;;;4.90;2.77;;;;;;;10.38;69.51;99044.33;2119370;84;32995;-62
2021/05/17 03:14:29;;;;;;;6.10;3.42;;;;;;;10.33;69.56;99046.86;2119448;84;29730;-61
2021/05/17 03:17:31;;;;;;;11.00;4.70;;;;;;;10.31;69.67;99048.78;2119577;84;27643;-60
2021/05/17 03:20:34;;;;;;;5.72;2.67;;;;;;;10.28;69.61;99038.28;2119498;84;28642;-60
2021/05/17 03:23:36;;;;;;;3.90;2.12;;;;;;;10.25;69.88;99031.80;2119465;84;30224;-60
2021/05/17 03:26:39;;;;;;;4.10;2.62;;;;;;;10.26;69.84;99029.50;2119384;84;32187;-61
2021/05/17 03:29:44;;;;;;;3.62;2.42;;;;;;;10.29;70.01;99032.44;2119690;84;29356;-62
2021/05/17 03:32:46;;;;;;;4.47;2.27;;;;;;;10.31;69.93;99030.52;2119824;84;27659;-60
2021/05/17 03:35:47;;;;;;;6.33;2.67;;;;;;;10.31;69.90;99027.84;2119653;84;28841;-65
2021/05/17 03:38:49;;;;;;;4.05;2.85;;;;;;;10.30;69.91;99028.80;2119399;84;31361;-62
2021/05/17 03:41:51;;;;;;;6.10;2.60;;;;;;;10.28;69.81;99030.25;2119561;84;33280;-64
2021/05/17 03:44:53;;;;;;;4.95;2.08;;;;;;;10.27;69.76;99029.88;2119586;84;29408;-59
2021/05/17 03:47:54;;;;;;;3.42;2.20;;;;;;;10.26;69.65;99033.52;2119420;84;28042;-66
2021/05/17 03:50:56;;;;;;;5.25;2.22;;;;;;;10.26;69.72;99033.52;2119638;84;28368;-66
2021/05/17 03:53:58;;;;;;;3.65;1.98;;;;;;;10.26;69.87;99042.88;2119460;84;31567;-60
2021/05/17 03:57:00;;;;;;;3.98;1.82;;;;;;;10.27;69.89;99043.26;2118923;84;34184;-59
2021/05/17 04:00:09;;;;;;;2.22;1.77;;;;;;;10.29;69.94;99046.70;2115686;84;29967;-71
2021/05/17 04:03:16;;;;;;;4.85;2.30;;;;;;;10.34;70.15;99061.09;2116066;84;28170;-63
2021/05/17 04:06:23;;;;;;;4.75;1.82;;;;;;;10.36;70.26;99067.20;2115822;84;29798;-64
2021/05/17 04:13:21;;;;;;;2.98;2.08;;;;;;;10.42;70.70;99058.80;2011204;88;33948;-69
2021/05/17 04:16:22;;;;;;;4.95;2.15;;;;;;;10.48;70.88;99058.84;2011204;88;29200;-61
2021/05/17 04:19:26;;;;;;;4.65;1.50;;;;;;;10.59;71.02;99066.14;2011216;87;27730;-66
2021/05/17 04:22:27;;;;;;;2.17;1.50;;;;;;;10.73;71.20;99061.13;2011350;88;28940;-59
2021/05/17 04:25:29;;;;;;;2.92;1.50;;;;;;;10.89;71.43;99059.08;2011117;88;30878;-64
2021/05/17 04:28:31;;;;;;;4.30;1.47;;;;;;;11.11;71.35;99064.25;2012304;87;33114;-60
2021/05/17 04:31:33;;;;;;;6.70;2.08;;;;;;;11.32;71.40;99059.16;2037837;87;29596;-60
2021/05/17 04:34:34;;;;;;;7.55;1.80;;;;;;;11.57;71.24;99073.93;2073751;85;27610;-60
2021/05/17 04:37:36;;;;;;;2.47;1.75;;;;;;;11.86;71.17;99077.98;2083342;85;28686;-60
2021/05/17 04:40:38;;;;;;;4.65;1.30;;;;;;;12.36;71.23;99080.16;2082035;85;31414;-59
2021/05/17 04:43:40;;;;;;;1.87;1.22;;;;;;;13.45;71.51;99069.85;2081292;85;33311;-60
2021/05/17 04:46:41;;;;;;;2.85;1.70;;;;;;;14.47;69.98;99063.20;2081519;85;29027;-61
2021/05/17 04:49:43;;;;;;;4.95;1.65;;;;;;;15.42;68.95;99066.16;2081855;85;27649;-61
2021/05/17 04:52:45;;;;;;;1.77;1.07;;;;;;;16.66;67.40;99069.67;2083375;85;28636;-64
2021/05/17 04:55:47;;;;;;;2.33;1.40;;;;;;;17.44;65.87;99067.70;2083105;85;30978;-63
2021/05/17 04:58:50;;;;;;;1.70;1.22;;;;;;;18.13;64.96;99062.66;2083240;85;32370;-60
2021/05/17 05:01:52;;;;;;;3.95;1.40;;;;;;;18.55;63.91;99069.27;2081427;85;29185;-62
2021/05/17 05:04:55;;;;;;;4.33;1.57;;;;;;;19.06;61.88;99068.11;2081360;85;27588;-61
2021/05/17 05:07:57;;;;;;;3.12;1.70;;;;;;;19.52;61.69;99058.80;2093258;84;29766;-62
2021/05/17 05:10:59;;;;;;;4.62;1.92;;;;;;;19.72;60.73;99060.70;2118153;84;31346;-62
2021/05/17 05:14:02;;;;;;;5.17;1.82;;;;;;;19.70;59.88;99056.81;2116752;84;33001;-62
2021/05/17 05:17:03;;;;;;;6.90;1.90;;;;;;;19.57;58.83;99056.44;2115702;84;29020;-60
2021/05/17 05:20:07;;;;;;;3.77;1.65;;;;;;;19.53;58.97;99051.83;2115627;84;27582;-61
2021/05/17 05:23:17;;;;;;;3.85;1.12;;;;;;;19.62;58.52;99060.84;2117319;84;28596;-61
2021/05/17 05:26:50;;;;;;;5.35;1.80;;;;;;;19.50;57.45;99061.69;2119871;84;30904;-60
2021/05/17 05:33:05;;;;;;;7.05;1.70;;;;;;;19.48;57.18;99062.35;2119738;84;28884;-62
2021/05/17 05:35:58;;;;;;;7.37;1.45;;;;;;;19.70;56.94;99058.17;2119358;84;27680;-60
2021/05/17 05:39:00;;;;;;;8.65;1.55;;;;;;;20.33;57.03;99057.25;2115670;84;29085;-65
2021/05/17 05:42:03;;;;;;;3.10;1.17;;;;;;;21.01;55.77;99062.47;2115638;84;32104;-63
2021/05/17 05:45:28;;;;;;;4.15;1.82;;;;;;;21.84;54.39;99048.48;2115799;84;32943;-60
2021/05/17 05:48:30;;;;;;;4.90;1.47;;;;;;;22.57;53.76;99047.58;2007894;88;30121;-60
2021/05/17 05:51:32;;;;;;;2.20;1.20;;;;;;;23.55;53.08;99034.88;2023826;87;27700;-61
2021/05/17 05:54:34;;;;;;;5.58;1.50;;;;;;;24.34;51.51;99043.61;2037953;87;29022;-60
2021/05/17 05:57:41;;;;;;;6.33;1.20;;;;;;;24.95;50.79;99058.66;2037996;87;31435;-60
2021/05/17 06:00:40;;;;;;;4.50;1.22;;;;;;;25.52;49.47;99053.61;2031857;87;34145;-60
2021/05/17 06:03:42;;;;;;;2.50;1.20;;;;;;;25.90;46.99;99042.95;2007921;88;29789;-64
2021/05/17 06:06:44;;;;;;;1.70;0.80;;;;;;;26.39;46.09;99039.55;2007971;88;27933;-61
2021/05/17 06:09:47;;;;;;;6.33;1.02;;;;;;;26.57;45.29;99042.73;2007908;88;29795;-61
2021/05/17 06:12:50;;;;;;;2.58;0.88;;;;;;;26.94;45.23;99047.27;2007880;88;30449;-61
2021/05/17 06:15:53;;;;;;;2.92;1.05;;;;;;;26.70;43.54;99035.85;2009783;87;37126;-62
2021/05/17 06:18:56;;;;;;;4.28;1.20;;;;;;;26.19;43.02;99026.36;2008011;88;29923;-60
2021/05/17 06:21:58;;;;;;;2.58;0.88;;;;;;;25.93;42.90;99030.20;2008019;88;27731;-75
2021/05/17 06:25:03;;;;;;;2.17;1.20;;;;;;;25.54;42.35;99033.68;2043454;84;28617;-74
2021/05/17 06:28:05;;;;;;;4.15;1.27;;;;;;;25.38;43.13;99027.47;2075415;84;31792;-74
2021/05/17 06:31:08;;;;;;;4.67;1.17;;;;;;;25.38;42.63;99034.33;2117777;83;33659;-73
2021/05/17 06:34:11;;;;;;;2.80;1.12;;;;;;;25.55;43.06;99023.86;2117908;84;29648;-73
2021/05/17 06:37:13;;;;;;;4.20;0.98;;;;;;;25.61;43.20;99022.19;2139131;83;27605;-62
2021/05/17 06:40:15;;;;;;;1.52;0.85;;;;;;;25.69;43.11;99023.39;2107170;84;29359;-62
2021/05/17 06:43:17;;;;;;;2.17;0.90;;;;;;;25.75;42.85;99025.28;2107276;84;31966;-61
2021/05/17 06:46:20;;;;;;;3.98;1.00;;;;;;;25.87;42.75;99023.33;2107149;84;34264;-61
2021/05/17 06:49:26;;;;;;;2.12;1.00;;;;;;;25.86;42.28;99021.09;2129020;83;29767;-61
2021/05/17 06:52:27;;;;;;;3.80;1.37;;;;;;;25.55;41.92;99017.01;2118356;83;28070;-60
2021/05/17 06:55:39;;;;;;;3.72;1.75;;;;;;;25.11;41.24;99010.88;2107188;84;29783;-60
2021/05/17 06:58:38;;;;;;;6.35;1.57;;;;;;;24.61;41.95;99019.20;2115424;83;31056;-60
2021/05/17 07:01:39;;;;;;;8.78;1.40;;;;;;;24.21;41.73;99022.97;2140868;83;33017;-59
2021/05/17 07:04:42;;;;;;;2.87;1.40;;;;;;;24.08;42.39;99017.70;2140732;83;29020;-61
2021/05/17 07:14:11;;;;;;;4.12;1.20;;;;;;;26.09;41.74;99052.81;2076290;85;32328;-62
2021/05/17 07:17:13;;;;;;;3.62;1.12;;;;;;;26.95;40.66;99047.59;2076166;84;34451;-63
2021/05/17 07:20:16;;;;;;;3.35;1.30;;;;;;;27.58;40.29;99061.28;2076265;85;29752;-63
2021/05/17 07:23:43;;;;;;;3.00;1.30;;;;;;;28.18;40.00;99057.36;2076211;85;27883;-61
2021/05/17 07:26:42;;;;;;;3.58;1.57;;;;;;;28.69;38.88;99043.09;2073371;85;29194;-61
2021/05/17 07:29:44;;;;;;;3.08;1.20;;;;;;;29.13;38.85;99034.80;2103805;84;32141;-62
2021/05/17 07:32:46;;;;;;;1.27;0.90;;;;;;;29.47;38.01;99027.01;2106140;84;33138;-66
2021/05/17 07:35:48;;;;;;;2.30;1.22;;;;;;;29.68;37.90;99017.41;2105696;84;30130;-64
2021/05/17 07:38:51;;;;;;;2.15;1.05;;;;;;;29.70;36.99;99015.23;2105795;84;28207;-61
2021/05/17 07:41:54;;;;;;;3.30;0.80;;;;;;;29.49;36.47;99017.96;2096594;84;28621;-63
2021/05/17 07:44:55;;;;;;;4.08;1.00;;;;;;;29.34;35.24;99025.77;2076085;85;32098;-60
2021/05/17 07:47:57;;;;;;;1.25;1.15;;;;;;;29.07;35.93;99031.61;2092372;84;32861;-62
2021/05/17 07:50:58;;;;;;;2.33;1.10;;;;;;;28.86;35.65;99038.41;2107147;84;30138;-63
2021/05/17 07:54:01;;;;;;;1.98;0.98;;;;;;;28.71;36.09;99040.09;2114913;83;27665;-61
2021/05/17 07:57:06;;;;;;;2.22;0.93;;;;;;;28.54;35.54;99044.80;2140685;82;28968;-61
2021/05/17 08:00:09;;;;;;;2.80;0.90;;;;;;;28.38;35.45;99039.85;2139463;82;32183;-64
2021/05/17 08:03:32;;;;;;;1.87;0.85;;;;;;;28.17;35.82;99044.66;2140699;83;33589;-61
2021/05/17 08:06:34;;;;;;;1.12;0.72;;;;;;;28.05;35.83;99031.59;2064116;85;30352;-62
2021/05/17 08:09:36;;;;;;;2.12;1.00;;;;;;;27.94;35.88;99032.81;2064233;86;27663;-60
2021/05/17 08:12:38;;;;;;;2.10;1.22;;;;;;;27.71;35.45;99035.62;2064329;86;30024;-61
2021/05/17 08:15:41;;;;;;;1.72;0.90;;;;;;;27.45;36.13;99047.01;2087336;84;31702;-62
2021/05/17 08:18:44;;;;;;;1.85;1.30;;;;;;;27.30;35.96;99042.63;2099729;84;32938;-61
2021/05/17 08:21:46;;;;;;;1.60;0.93;;;;;;;27.24;36.22;99049.52;2099561;84;29748;-61
2021/05/17 08:24:48;;;;;;;2.02;1.15;;;;;;;27.11;36.50;99045.76;2096828;84;27674;-64
2021/05/17 08:27:50;;;;;;;2.47;1.00;;;;;;;26.90;36.33;99049.59;2039244;86;28492;-62
2021/05/17 08:30:56;;;;;;;3.25;1.25;;;;;;;26.64;36.53;99044.42;2039198;87;31485;-61
2021/05/17 08:33:58;;;;;;;2.27;1.40;;;;;;;26.48;36.23;99040.73;2039107;87;34324;-60
2021/05/17 08:37:01;;;;;;;2.20;1.27;;;;;;;26.03;36.53;99046.27;2046781;86;29396;-61
2021/05/17 08:40:03;;;;;;;4.72;1.62;;;;;;;25.73;36.95;99046.59;2098687;84;27698;-60
2021/05/17 08:43:06;;;;;;;1.42;1.07;;;;;;;25.43;37.21;99048.82;2033400;87;29415;-61
2021/05/17 08:46:10;;;;;;;4.35;1.30;;;;;;;25.33;37.51;99045.88;2049780;86;31485;-61
2021/05/17 08:49:13;;;;;;;1.82;1.07;;;;;;;25.12;37.58;99041.89;2075574;84;33065;-60
2021/05/17 08:52:15;;;;;;;2.65;1.10;;;;;;;24.86;38.00;99036.55;2140712;83;29440;-60
2021/05/17 08:55:18;;;;;;;3.20;1.10;;;;;;;24.71;37.87;99032.58;2141047;83;27616;-60
2021/05/17 08:58:20;;;;;;;2.33;1.17;;;;;;;24.60;37.93;99035.30;2126555;83;29000;-60
2021/05/17 09:01:22;;;;;;;3.17;1.00;;;;;;;24.55;38.02;99043.26;2107109;84;32044;-60
2021/05/17 09:04:23;;;;;;;1.92;0.80;;;;;;;24.50;38.50;99034.78;2101355;84;33482;-68
2021/05/17 09:07:44;;;;;;;2.37;1.10;;;;;;;24.49;38.30;99039.42;2057231;84;29603;-60
2021/05/17 09:10:47;;;;;;;2.27;1.00;;;;;;;24.48;38.65;99036.91;2077446;85;27664;-59
2021/05/17 09:13:49;;;;;;;0.93;0.80;;;;;;;24.48;38.50;99035.53;2077452;85;28691;-60
2021/05/17 09:17:12;;;;;;;1.92;1.07;;;;;;;24.38;38.80;99041.34;2032761;86;31670;-62
2021/05/17 09:20:26;;;;;;;1.17;1.05;;;;;;;24.35;38.71;99036.26;2045441;87;34187;-60
2021/05/17 09:23:31;;;;;;;1.15;1.05;;;;;;;24.39;38.24;99039.77;2056872;85;29034;-63
2021/05/17 09:26:33;;;;;;;2.52;0.98;;;;;;;24.12;37.84;99044.14;2077517;85;27627;-68
2021/05/17 09:29:51;;;;;;;1.70;0.75;;;;;;;24.08;38.80;99050.53;2077406;85;28604;-65
2021/05/17 09:32:53;;;;;;;3.50;1.30;;;;;;;24.22;39.25;99046.55;2056724;85;30877;-66
2021/05/17 09:35:54;;;;;;;1.25;1.00;;;;;;;24.43;38.91;99050.66;2045268;87;33732;-61
2021/05/17 09:39:04;;;;;;;3.95;1.02;;;;;;;24.51;38.72;99045.55;2045238;87;30271;-61
2021/05/17 09:42:06;;;;;;;3.15;1.07;;;;;;;24.53;37.97;99046.72;2052212;85;28165;-61
2021/05/17 09:45:12;;;;;;;2.33;1.40;;;;;;;24.66;38.42;99043.23;2045340;87;29047;-61
2021/05/17 09:48:21;;;;;;;2.55;1.10;;;;;;;24.72;38.09;99046.59;2045355;87;31078;-65
2021/05/17 09:51:23;;;;;;;1.72;1.10;;;;;;;24.67;37.70;99044.40;2045276;87;33737;-63
2021/05/17 09:54:25;;;;;;;2.55;1.32;;;;;;;24.47;37.31;99041.52;2070033;85;29025;-61
2021/05/17 09:57:40;;;;;;;4.75;1.50;;;;;;;24.41;37.61;99040.92;2076555;85;27590;-62
2021/05/17 10:00:42;;;;;;;3.75;1.05;;;;;;;24.41;37.61;99036.31;2045417;87;29339;-61
2021/05/17 10:03:47;;;;;;;3.15;1.30;;;;;;;24.32;38.06;99036.65;2045528;87;30275;-67
2021/05/17 10:06:54;;;;;;;5.08;1.75;;;;;;;24.30;37.97;99031.89;2078659;85;33760;-63
2021/05/17 10:09:56;;;;;;;2.33;1.40;;;;;;;24.28;38.18;99035.66;2112324;84;29778;-62
2021/05/17 10:13:00;;;;;;;2.20;1.15;;;;;;;24.23;37.99;99033.20;2118625;84;27613;-63
2021/05/17 10:16:07;;;;;;;6.87;1.12;;;;;;;24.30;38.31;99040.96;2110132;84;28790;-61
2021/05/17 10:19:09;;;;;;;4.95;1.40;;;;;;;24.36;37.95;99042.06;2082444;85;30981;-61
2021/05/17 10:22:12;;;;;;;6.00;1.60;;;;;;;24.33;37.99;99039.71;2106186;84;34100;-60
2021/05/17 10:25:24;;;;;;;6.97;1.60;;;;;;;24.28;37.78;99032.93;2107039;84;28944;-61
2021/05/17 10:28:26;;;;;;;4.08;0.90;;;;;;;24.20;38.13;99037.19;2081952;84;27689;-60
2021/05/17 10:31:29;;;;;;;2.60;1.05;;;;;;;24.12;37.80;99034.56;2061808;85;29032;-61
2021/05/17 10:34:32;;;;;;;5.95;1.98;;;;;;;24.07;37.93;99038.44;2086858;84;32104;-62
2021/05/17 10:37:33;;;;;;;4.50;1.62;;;;;;;24.00;38.11;99038.34;2084935;85;34060;-61
2021/05/17 10:40:41;;;;;;;3.98;1.60;;;;;;;23.93;38.19;99033.30;2084922;85;29422;-61
2021/05/17 10:47:06;;;;;;;;;;;;;;;23.47;38.33;99025.77;2197682;81;27593;-60
2021/05/17 10:50:18;;;;;;;2.72;1.20;;;;;;;23.30;38.50;99040.15;2194922;81;31656;-61
2021/05/17 10:53:50;;;;;;;3.67;1.57;;;;;;;23.19;38.98;99035.98;2193934;81;57881;-60
2021/05/17 10:57:01;;;;;;;6.95;1.65;;;;;;;23.17;39.39;99039.95;2211916;80;29739;-61
2021/05/17 11:03:21;;;;;;;3.22;1.40;;;;;;;22.96;39.43;99047.00;2212027;80;28516;-60
2021/05/17 11:06:26;;;;;;;11.50;2.58;;;;;;;22.89;39.63;99041.45;2211949;80;31412;-60
2021/05/17 11:09:31;;;;;;;;;;;;;;;22.76;39.85;99045.35;2214400;80;34120;-60
2021/05/17 11:12:53;;;;;;;4.78;1.80;;;;;;;22.63;39.63;99046.52;2215295;80;29999;-62
2021/05/17 11:16:05;;;;;;;2.37;1.47;;;;;;;22.48;40.11;99037.78;2194886;81;27463;-60
2021/05/17 11:19:18;;;;;;;4.80;1.80;;;;;;;22.36;39.79;99040.57;2194581;81;28608;-60
2021/05/17 11:22:20;;;;;;;4.15;1.70;;;;;;;22.24;39.65;99047.84;2192282;81;32091;-60
2021/05/17 11:25:44;;;;;;;4.12;1.67;;;;;;;22.14;39.84;99046.72;2190658;81;33296;-60
2021/05/17 11:28:54;;;;;;;3.07;1.47;;;;;;;22.03;40.09;99054.47;2192472;81;29470;-60
2021/05/17 11:32:13;;;;;;;4.22;1.82;;;;;;;21.93;40.78;99056.07;2194787;81;27660;-60
2021/05/17 11:35:17;;;;;;;4.67;2.17;;;;;;;21.83;40.68;99054.44;2190541;81;29063;-60
2021/05/17 11:38:19;;;;;;;5.05;1.80;;;;;;;21.73;41.21;99056.56;2144406;81;31401;-60
2021/05/17 11:41:21;;;;;;;2.70;1.50;;;;;;;21.65;41.30;99060.68;2194612;81;33132;-61
2021/05/17 11:44:52;;;;;;;3.50;1.42;;;;;;;21.53;41.28;99064.28;2189759;81;29870;-62
2021/05/17 11:47:47;;;;;;;4.70;1.77;;;;;;;21.48;41.54;99062.63;2194889;78;27524;-60
2021/05/17 11:50:49;;;;;;;2.98;1.40;;;;;;;21.38;41.52;99056.86;2258911;78;28822;-60
2021/05/17 11:53:53;;;;;;;2.67;1.62;;;;;;;21.25;41.42;99059.30;2260203;78;31166;-60
2021/05/17 11:56:58;;;;;;;3.92;1.40;;;;;;;21.19;41.76;99064.08;2259830;78;33071;-60
2021/05/17 12:00:07;;;;;;;4.80;1.50;;;;;;;21.17;42.03;99064.80;2226911;78;29817;-61
2021/05/17 12:03:11;;;;;;;5.17;1.50;;;;;;;21.11;42.27;99067.69;2194873;81;27614;-61
2021/05/17 12:06:13;;;;;;;1.83;1.40;;;;;;;21.04;41.79;99064.81;2195205;81;29072;-60
2021/05/17 12:09:49;;;;;;;2.85;1.32;;;;;;;21.03;42.05;99065.00;2193768;81;31412;-60
2021/05/17 12:12:52;;;;;;;5.50;1.47;;;;;;;21.05;42.39;99061.06;2190793;81;34053;-60
2021/05/17 12:15:54;;;;;;;4.87;2.55;;;;;;;21.10;42.29;99061.41;2190904;81;29025;-60
2021/05/17 12:19:00;;;;;;;5.67;1.82;;;;;;;21.12;42.16;99065.30;2212719;80;27599;-60
2021/05/17 12:22:21;;;;;;;3.87;1.50;;;;;;;21.08;42.55;99067.53;2219442;80;29674;-59
2021/05/17 12:25:24;;;;;;;4.08;1.75;;;;;;;21.16;42.86;99072.63;2211550;80;32103;-69
2021/05/17 12:28:25;;;;;;;1.85;1.40;;;;;;;21.15;42.45;99065.48;2228645;78;32980;-67
2021/05/17 12:31:27;;;;;;;4.83;1.90;;;;;;;21.16;43.00;99061.73;2136079;81;29712;-66
2021/05/17 12:34:29;;;;;;;2.35;1.60;;;;;;;21.16;42.62;99065.30;2173715;80;27648;-67
2021/05/17 12:37:36;;;;;;;8.48;1.98;;;;;;;21.05;42.31;99067.88;2188752;80;28666;-67
2021/05/17 12:40:40;;;;;;;2.75;1.65;;;;;;;20.99;42.66;99067.23;2205026;79;30964;-67
2021/05/17 12:43:42;;;;;;;3.70;1.40;;;;;;;20.90;42.57;99066.90;2212960;80;32933;-68
2021/05/17 12:46:43;;;;;;;4.70;1.82;;;;;;;20.84;42.69;99065.72;2249088;78;29044;-67
2021/05/17 12:49:53;;;;;;;7.20;1.75;;;;;;;20.81;42.77;99062.51;2213358;79;27656;-68
2021/05/17 12:53:08;;;;;;;3.65;1.37;;;;;;;20.79;42.78;99061.30;2187385;81;29224;-68
2021/05/17 12:56:10;;;;;;;2.62;1.22;;;;;;;20.78;42.65;99060.96;2193383;79;31575;-68
2021/05/17 12:59:18;;;;;;;3.50;1.20;;;;;;;20.79;42.56;99060.81;2250829;79;32956;-69
2021/05/17 13:02:22;;;;;;;8.75;1.60;;;;;;;20.88;42.64;99060.77;2220963;80;29084;-72
2021/05/17 13:05:24;;;;;;;1.95;1.20;;;;;;;20.97;42.76;99062.47;2186063;81;27633;-70
2021/05/17 13:08:44;;;;;;;4.05;1.62;;;;;;;21.04;42.83;99055.28;2209173;80;28580;-70
2021/05/17 13:11:50;;;;;;;8.35;1.65;;;;;;;21.15;42.70;99051.34;2179323;80;31895;-70
2021/05/17 13:14:52;;;;;;;3.10;1.25;;;;;;;21.23;42.34;99055.41;2185234;80;33024;-69
2021/05/17 13:18:06;;;;;;;4.72;1.42;;;;;;;21.33;42.33;99060.65;2206932;80;28999;-68
2021/05/17 13:21:13;;;;;;;51.45;23.35;;;;;;;21.46;42.83;99055.14;2244052;78;27694;-75
2021/05/17 13:31:05;;;;;;;4.25;1.50;;;;;;;21.81;41.19;99052.41;2263958;78;34120;-59
2021/05/17 13:34:10;;;;;;;3.15;1.37;;;;;;;21.92;41.11;99051.14;2234913;78;29023;-60
2021/05/17 13:37:14;;;;;;;6.40;2.15;;;;;;;21.99;40.89;99050.77;2241702;78;27636;-66
2021/05/17 13:40:17;;;;;;;3.02;1.40;;;;;;;22.15;40.98;99047.59;2212328;78;28595;-61
2021/05/17 13:43:21;;;;;;;5.43;1.83;;;;;;;22.27;40.67;99043.38;2186545;81;33078;-64
2021/05/17 13:46:26;;;;;;;4.40;1.30;;;;;;;22.34;40.21;99044.03;2200251;80;36706;-61
2021/05/17 13:49:32;;;;;;;2.87;1.30;;;;;;;22.35;40.21;99044.33;2217219;80;28902;-61
2021/05/17 13:52:51;;;;;;;1.77;1.20;;;;;;;22.32;39.81;99036.01;2218822;80;27691;-65
2021/05/17 13:55:53;;;;;;;1.27;1.10;;;;;;;22.29;39.86;99037.73;2160956;82;28682;-64
2021/05/17 13:58:55;;;;;;;2.80;1.25;;;;;;;22.28;39.56;99031.94;2161276;82;32183;-67
2021/05/17 14:01:57;;;;;;;2.37;0.98;;;;;;;22.28;39.53;99034.67;2160835;82;34140;-61
2021/05/17 14:04:59;;;;;;;3.58;1.40;;;;;;;22.31;39.39;99035.67;2159627;82;30070;-63
2021/05/17 14:08:01;;;;;;;2.08;0.90;;;;;;;22.30;39.24;99030.75;2158066;82;28164;-62
2021/05/17 14:11:04;;;;;;;2.55;1.27;;;;;;;22.36;39.21;99031.89;2125452;83;27537;-62
2021/05/17 14:14:06;;;;;;;5.17;1.62;;;;;;;22.33;39.31;99031.41;2127792;82;31613;-60
2021/05/17 14:17:09;;;;;;;2.33;1.20;;;;;;;22.45;39.85;99025.87;2150633;82;32970;-61
2021/05/17 14:20:14;;;;;;;27.62;16.15;;;;;;;22.55;39.61;99032.43;2161729;82;30284;-66
2021/05/17 14:23:16;;;;;;;;;;;;;;;22.69;39.47;99032.97;2164433;82;27570;-62
2021/05/17 14:26:18;;;;;;;10.70;3.83;;;;;;;22.84;39.71;99030.77;2161138;82;29083;-64
2021/05/17 14:29:19;;;;;;;6.80;2.62;;;;;;;22.95;39.92;99032.19;2143838;81;31351;-61
2021/05/17 14:32:21;;;;;;;4.30;1.47;;;;;;;23.04;39.84;99034.64;2123316;83;35134;-60
2021/05/17 14:35:23;;;;;;;1.82;0.90;;;;;;;23.09;39.51;99038.66;2155038;82;30625;-60
2021/05/17 14:38:26;;;;;;;3.52;1.27;;;;;;;23.01;38.95;99033.64;2162342;82;27603;-64
2021/05/17 14:41:27;;;;;;;4.20;1.37;;;;;;;22.85;38.91;99031.09;2161803;81;29717;-63
2021/05/17 14:44:29;;;;;;;5.22;1.50;;;;;;;22.73;39.21;99032.94;2161801;82;32093;-62
2021/05/17 14:47:33;;;;;;;5.85;3.62;;;;;;;22.63;38.93;99035.59;2161806;81;33681;-60
2021/05/17 14:50:35;;;;;;;2.52;1.40;;;;;;;22.53;39.49;99040.79;2161897;81;30412;-59
2021/05/17 14:53:37;;;;;;;4.55;1.90;;;;;;;22.39;39.32;99043.80;2158538;82;27633;-59
2021/05/17 14:56:39;;;;;;;4.50;1.52;;;;;;;22.30;39.43;99046.25;2161007;81;29816;-73